Louis Jolliet — VA7153 — position and weather

sailwx.info

Track history (hours):
 
Tides and Currents Weather Stations Pressure Air Temp Water Temp Dewpoint Dewpoint Depression Visibility Wind Speed Wind Dir Waves Ship Positions

Louis Jolliet

Last reported at 2014-Sep-02 14:23 UTC. Time now 2014-Oct-02 00:29 UTC.
Position N 46°49' W 071°12'.
Warning: this ship's position is 29 days out of date.

Type: Passenger vessel. MMSI: 316013356.

Date/timePositionNaut miles runAvg speedWind from/ knotsBaromVisibWave heightAir tempDewpointWater temp
2014-Sep-02 14:23N 46°49' W 071°12'0 0.0
2014-Sep-02 13:33N 46°49' W 071°12'0 0.0
2014-Sep-02 12:32N 46°49' W 071°12'0 0.0
2014-Sep-02 11:33N 46°49' W 071°12'0 0.0
2014-Sep-02 10:33N 46°49' W 071°12'0 0.0
2014-Sep-02 09:32N 46°49' W 071°12'0 0.0
2014-Sep-02 08:33N 46°49' W 071°12'0 0.0
2014-Sep-02 07:33N 46°49' W 071°12'0 0.0
2014-Sep-02 06:33N 46°49' W 071°12'0 0.0
2014-Sep-02 05:33N 46°49' W 071°12'0 0.0
2014-Sep-02 04:33N 46°49' W 071°12'0 0.0
2014-Sep-02 03:33N 46°49' W 071°12'0 0.0
2014-Sep-02 02:33N 46°49' W 071°12'0 0.0
2014-Sep-02 01:33N 46°49' W 071°12'0 0.0
2014-Sep-02 00:33N 46°49' W 071°12'0 0.0
2014-Sep-01 23:32N 46°49' W 071°12'0 0.0
2014-Sep-01 22:33N 46°49' W 071°12'0 0.0
2014-Sep-01 21:32N 46°49' W 071°12'0 0.0
2014-Sep-01 20:32N 46°49' W 071°12'3 3.5
2014-Sep-01 19:33N 46°46' W 071°15'6 5.7
2014-Sep-01 18:33N 46°44' W 071°22'6 6.2
2014-Sep-01 17:33N 46°46' W 071°14'7 7.2
2014-Sep-01 16:33N 46°52' W 071°08'5 5.0
2014-Sep-01 15:32N 46°51' W 071°01'6 6.4
2014-Sep-01 14:33N 46°50' W 071°10'2 1.9
2014-Sep-01 13:33N 46°49' W 071°12'0 0.0
2014-Sep-01 12:33N 46°49' W 071°12'0 0.0
2014-Sep-01 11:33N 46°49' W 071°12'0 0.0
2014-Sep-01 10:33N 46°49' W 071°12'0 0.0
2014-Sep-01 09:33N 46°49' W 071°12'0 0.0
2014-Sep-01 08:33N 46°49' W 071°12'0 0.0
2014-Sep-01 07:33N 46°49' W 071°12'0 0.0
2014-Sep-01 06:33N 46°49' W 071°12'0 0.0
2014-Sep-01 05:33N 46°49' W 071°12'0 0.0
2014-Sep-01 04:33N 46°49' W 071°12'0 0.0
2014-Sep-01 03:33N 46°49' W 071°12'1 1.3
2014-Sep-01 02:33N 46°48' W 071°13'4 3.8
2014-Sep-01 01:33N 46°45' W 071°17'1 1.3
2014-Sep-01 00:33N 46°46' W 071°15'8 8.1
2014-Aug-31 23:33N 46°52' W 071°08'4 4.3
2014-Aug-31 22:34N 46°49' W 071°12'0 0.0
2014-Aug-31 21:33N 46°49' W 071°12'4 3.8
2014-Aug-31 20:33N 46°52' W 071°09'4 3.8
2014-Aug-31 19:33N 46°49' W 071°12'4 3.6
2014-Aug-31 18:33N 46°52' W 071°09'4 3.6
2014-Aug-31 17:33N 46°49' W 071°12'2 2.4
2014-Aug-31 16:33N 46°51' W 071°10'2 2.4
2014-Aug-31 15:33N 46°49' W 071°12'0 0.0
2014-Aug-31 14:34N 46°49' W 071°12'0 0.0
2014-Aug-31 13:33N 46°49' W 071°12'0 0.0
2014-Aug-31 12:33N 46°49' W 071°12'0 0.0
2014-Aug-31 11:33N 46°49' W 071°12'0 0.0
2014-Aug-31 10:33N 46°49' W 071°12'0 0.0
2014-Aug-31 09:33N 46°49' W 071°12'0 0.0
2014-Aug-31 08:33N 46°49' W 071°12'0 0.0
2014-Aug-31 07:33N 46°49' W 071°12'0 0.0
2014-Aug-31 06:33N 46°49' W 071°12'0 0.0
2014-Aug-31 05:33N 46°49' W 071°12'0 0.0
2014-Aug-31 04:33N 46°49' W 071°12'0 0.0
2014-Aug-31 03:33N 46°49' W 071°12'1 1.0
2014-Aug-31 02:33N 46°48' W 071°12'5 4.7
2014-Aug-31 01:33N 46°45' W 071°17'3 3.2
2014-Aug-31 00:33N 46°47' W 071°14'5 5.3
2014-Aug-30 23:33N 46°51' W 071°09'3 2.8
2014-Aug-30 22:30N 46°49' W 071°12'0 0.0
2014-Aug-30 21:32N 46°49' W 071°12'4 3.8
2014-Aug-30 20:33N 46°52' W 071°09'4 3.7
2014-Aug-30 19:33N 46°49' W 071°12'3 3.2
2014-Aug-30 18:33N 46°51' W 071°09'3 3.2
2014-Aug-30 17:32N 46°49' W 071°12'2 2.2
2014-Aug-30 16:33N 46°51' W 071°10'2 2.2
2014-Aug-30 15:33N 46°49' W 071°12'0 0.1
2014-Aug-30 14:33N 46°49' W 071°12'0 0.0
2014-Aug-30 13:33N 46°49' W 071°12'0 0.0
2014-Aug-30 12:33N 46°49' W 071°12'0 0.0
2014-Aug-30 11:33N 46°49' W 071°12'0 0.0
2014-Aug-30 10:33N 46°49' W 071°12'0 0.0
2014-Aug-30 09:33N 46°49' W 071°12'0 0.0
2014-Aug-30 08:33N 46°49' W 071°12'0 0.0
2014-Aug-30 07:33N 46°49' W 071°12'0 0.0
2014-Aug-30 06:33N 46°49' W 071°12'2 1.5
2014-Aug-30 05:33N 46°50' W 071°11'1 0.5
2014-Aug-30 04:33N 46°50' W 071°10'2 1.9
2014-Aug-30 03:32N 46°49' W 071°12'1 1.1
2014-Aug-30 02:33N 46°50' W 071°12'5 5.0
2014-Aug-30 01:33N 46°46' W 071°15'1 0.8
2014-Aug-30 00:33N 46°45' W 071°16'9 8.9
2014-Aug-29 23:33N 46°52' W 071°08'4 4.2
2014-Aug-29 22:33N 46°49' W 071°12'0 0.0
2014-Aug-29 21:32N 46°49' W 071°12'3 3.4
2014-Aug-29 20:33N 46°51' W 071°09'3 3.3
2014-Aug-29 19:33N 46°49' W 071°12'3 3.3
2014-Aug-29 18:33N 46°51' W 071°09'3 3.2
2014-Aug-29 17:31N 46°49' W 071°12'2 2.1
2014-Aug-29 16:33N 46°50' W 071°10'2 2.1
2014-Aug-29 15:33N 46°49' W 071°12'0 0.1
2014-Aug-29 14:33N 46°49' W 071°12'0 0.0
2014-Aug-29 13:33N 46°49' W 071°12'0 0.0
2014-Aug-29 12:33N 46°49' W 071°12'0 0.0
2014-Aug-29 11:33N 46°49' W 071°12'0 0.0
2014-Aug-29 10:33N 46°49' W 071°12'0 0.0
2014-Aug-29 09:33N 46°49' W 071°12'0 0.0
2014-Aug-29 08:33N 46°49' W 071°12'0 0.0
2014-Aug-29 07:33N 46°49' W 071°12'0 0.0
2014-Aug-29 06:33N 46°49' W 071°12'0 0.0
2014-Aug-29 05:33N 46°49' W 071°12'0 0.0
2014-Aug-29 04:33N 46°49' W 071°12'0 0.0
2014-Aug-29 03:33N 46°49' W 071°12'1 1.1
2014-Aug-29 02:33N 46°50' W 071°11'6 6.4
2014-Aug-29 01:33N 46°45' W 071°17'2 1.8
2014-Aug-29 00:33N 46°46' W 071°15'7 6.4
2014-Aug-28 23:32N 46°51' W 071°09'3 3.0
2014-Aug-28 22:33N 46°49' W 071°12'0 0.0
2014-Aug-28 21:33N 46°49' W 071°12'4 4.1
2014-Aug-28 20:33N 46°52' W 071°08'4 4.1
2014-Aug-28 19:32N 46°49' W 071°12'3 2.4
2014-Aug-28 18:27N 46°51' W 071°09'3 2.9
2014-Aug-28 17:32N 46°49' W 071°12'2 1.7
2014-Aug-28 16:33N 46°50' W 071°11'2 1.7
2014-Aug-28 15:33N 46°49' W 071°12'0 0.0
2014-Aug-28 14:33N 46°49' W 071°12'0 0.0
2014-Aug-28 13:33N 46°49' W 071°12'0 0.0
2014-Aug-28 12:33N 46°49' W 071°12'0 0.0
2014-Aug-28 11:32N 46°49' W 071°12'0 0.0
2014-Aug-28 10:33N 46°49' W 071°12'0 0.0
2014-Aug-28 09:33N 46°49' W 071°12'0 0.0
2014-Aug-28 08:33N 46°49' W 071°12'0 0.0
2014-Aug-28 07:33N 46°49' W 071°12'0 0.0
2014-Aug-28 06:33N 46°49' W 071°12'0 0.0
2014-Aug-28 05:33N 46°49' W 071°12'0 0.0
2014-Aug-28 04:33N 46°49' W 071°12'0 0.0
2014-Aug-28 03:32N 46°49' W 071°12'1 1.1
2014-Aug-28 02:33N 46°50' W 071°12'6 6.2
2014-Aug-28 01:33N 46°45' W 071°17'2 1.8
2014-Aug-28 00:33N 46°46' W 071°15'7 7.1
2014-Aug-27 23:33N 46°52' W 071°09'4 3.6
2014-Aug-27 22:33N 46°49' W 071°12'0 0.0
2014-Aug-27 21:33N 46°49' W 071°12'5 4.7
2014-Aug-27 20:33N 46°53' W 071°08'5 4.8
2014-Aug-27 19:33N 46°49' W 071°12'3 3.2
2014-Aug-27 18:33N 46°51' W 071°09'3 3.2
2014-Aug-27 17:32N 46°49' W 071°12'1 1.4
2014-Aug-27 16:33N 46°50' W 071°11'2 1.5
2014-Aug-27 15:33N 46°49' W 071°12'0 0.2
2014-Aug-27 14:33N 46°49' W 071°12'0 0.0
2014-Aug-27 13:33N 46°49' W 071°12'0 0.0
2014-Aug-27 12:33N 46°49' W 071°12'0 0.0
2014-Aug-27 11:33N 46°49' W 071°12'0 0.0
2014-Aug-27 10:33N 46°49' W 071°12'0 0.0
2014-Aug-27 09:33N 46°49' W 071°12'0 0.0
2014-Aug-27 08:33N 46°49' W 071°12'0 0.0
2014-Aug-27 07:33N 46°49' W 071°12'0 0.0
2014-Aug-27 06:33N 46°49' W 071°12'0 0.0
2014-Aug-27 05:33N 46°49' W 071°12'0 0.0
2014-Aug-27 04:33N 46°49' W 071°12'0 0.0
2014-Aug-27 03:33N 46°49' W 071°12'1 1.3
2014-Aug-27 02:33N 46°50' W 071°11'6 6.4
2014-Aug-27 01:33N 46°45' W 071°17'3 2.9
2014-Aug-27 00:33N 46°47' W 071°14'5 5.2
2014-Aug-26 23:33N 46°51' W 071°09'3 3.0
2014-Aug-26 22:33N 46°49' W 071°12'0 0.0
2014-Aug-26 21:33N 46°49' W 071°12'5 4.7
2014-Aug-26 20:33N 46°53' W 071°08'5 4.7
2014-Aug-26 19:33N 46°49' W 071°12'3 3.4
2014-Aug-26 18:33N 46°51' W 071°09'3 3.4
2014-Aug-26 17:32N 46°49' W 071°12'2 2.1
2014-Aug-26 16:33N 46°50' W 071°10'2 2.1
2014-Aug-26 15:32N 46°49' W 071°12'0 0.0
2014-Aug-26 14:32N 46°49' W 071°12'0 0.0
2014-Aug-26 13:33N 46°49' W 071°12'0 0.0
2014-Aug-26 12:33N 46°49' W 071°12'0 0.0
2014-Aug-26 11:33N 46°49' W 071°12'0 0.0
2014-Aug-26 10:33N 46°49' W 071°12'0 0.0
2014-Aug-26 09:33N 46°49' W 071°12'0 0.0
2014-Aug-26 08:34N 46°49' W 071°12'0 0.0
2014-Aug-26 07:33N 46°49' W 071°12'0 0.0
2014-Aug-26 06:33N 46°49' W 071°12'0 0.0
2014-Aug-26 05:32N 46°49' W 071°12'0 0.0
2014-Aug-26 04:33N 46°49' W 071°12'0 0.0
2014-Aug-26 03:33N 46°49' W 071°12'1 0.7
2014-Aug-26 02:33N 46°49' W 071°12'7 6.5
2014-Aug-26 01:33N 46°45' W 071°18'4 4.0
2014-Aug-26 00:33N 46°47' W 071°13'5 5.2
2014-Aug-25 23:33N 46°51' W 071°09'3 3.2
2014-Aug-25 22:33N 46°49' W 071°12'0 0.0
2014-Aug-25 21:33N 46°49' W 071°12'5 4.6
2014-Aug-25 20:33N 46°53' W 071°08'5 4.6
2014-Aug-25 19:33N 46°49' W 071°12'4 3.6
2014-Aug-25 18:33N 46°52' W 071°09'4 3.6
2014-Aug-25 17:33N 46°49' W 071°12'2 1.5
2014-Aug-25 16:33N 46°50' W 071°11'2 1.6
2014-Aug-25 15:33N 46°49' W 071°12'0 0.1
2014-Aug-25 14:32N 46°49' W 071°12'0 0.0
2014-Aug-25 13:33N 46°49' W 071°12'0 0.0
2014-Aug-25 12:33N 46°49' W 071°12'0 0.0
2014-Aug-25 11:33N 46°49' W 071°12'0 0.0
2014-Aug-25 10:33N 46°49' W 071°12'0 0.0
2014-Aug-25 09:33N 46°49' W 071°12'0 0.0
2014-Aug-25 08:34N 46°49' W 071°12'0 0.0
2014-Aug-25 07:34N 46°49' W 071°12'0 0.0
2014-Aug-25 06:34N 46°49' W 071°12'0 0.0
2014-Aug-25 05:33N 46°49' W 071°12'0 0.0
2014-Aug-25 04:33N 46°49' W 071°12'0 0.0
2014-Aug-25 03:34N 46°49' W 071°12'1 0.6
2014-Aug-25 02:33N 46°48' W 071°12'7 6.9
2014-Aug-25 01:33N 46°44' W 071°20'6 5.8
2014-Aug-25 00:33N 46°48' W 071°13'4 4.5
2014-Aug-24 23:34N 46°51' W 071°09'3 3.3
2014-Aug-24 22:33N 46°49' W 071°12'0 0.0
2014-Aug-24 21:33N 46°49' W 071°12'3 3.5
2014-Aug-24 20:33N 46°51' W 071°09'3 3.5
2014-Aug-24 19:33N 46°49' W 071°12'5 4.7
2014-Aug-24 18:33N 46°53' W 071°08'5 4.7
2014-Aug-24 17:32N 46°49' W 071°12'2 1.8
2014-Aug-24 16:33N 46°50' W 071°11'2 1.8
2014-Aug-24 15:33N 46°49' W 071°12'0 0.0
2014-Aug-24 14:33N 46°49' W 071°12'0 0.0
2014-Aug-24 13:33N 46°49' W 071°12'0 0.0
2014-Aug-24 12:33N 46°49' W 071°12'0 0.0
2014-Aug-24 11:33N 46°49' W 071°12'0 0.0
2014-Aug-24 10:32N 46°49' W 071°12'0 0.0
2014-Aug-24 09:33N 46°49' W 071°12'0 0.0
2014-Aug-24 08:32N 46°49' W 071°12'0 0.0
2014-Aug-24 07:33N 46°49' W 071°12'0 0.0
2014-Aug-24 06:33N 46°49' W 071°12'0 0.0
2014-Aug-24 05:33N 46°49' W 071°12'0 0.0
2014-Aug-24 04:32N 46°49' W 071°12'0 0.0
2014-Aug-24 03:33N 46°49' W 071°12'1 1.0
2014-Aug-24 02:33N 46°50' W 071°11'8 7.5
2014-Aug-24 01:33N 46°44' W 071°19'5 5.1
2014-Aug-24 00:33N 46°47' W 071°13'5 5.4
2014-Aug-23 23:33N 46°52' W 071°09'4 3.9
2014-Aug-23 22:33N 46°49' W 071°12'0 0.0
2014-Aug-23 21:33N 46°49' W 071°12'4 3.5
2014-Aug-23 20:33N 46°52' W 071°09'4 3.6
2014-Aug-23 19:33N 46°49' W 071°12'  
Track history (hours):
 
Tides and Currents Weather Stations Pressure Air Temp Water Temp Dewpoint Dewpoint Depression Visibility Wind Speed Wind Dir Waves Ship Positions

Louis Jolliet

Last reported at 2014-Sep-02 14:23 UTC. Time now 2014-Oct-02 00:29 UTC.
Position N 46°49' W 071°12'.
Warning: this ship's position is 29 days out of date.

Type: Passenger vessel. MMSI: 316013356.

Date/timePositionNaut miles runAvg speedWind from/ knotsBaromVisibWave heightAir tempDewpointWater temp
2014-Sep-02 14:23N 46°49' W 071°12'0 0.0
2014-Sep-02 13:33N 46°49' W 071°12'0 0.0
2014-Sep-02 12:32N 46°49' W 071°12'0 0.0
2014-Sep-02 11:33N 46°49' W 071°12'0 0.0
2014-Sep-02 10:33N 46°49' W 071°12'0 0.0
2014-Sep-02 09:32N 46°49' W 071°12'0 0.0
2014-Sep-02 08:33N 46°49' W 071°12'0 0.0
2014-Sep-02 07:33N 46°49' W 071°12'0 0.0
2014-Sep-02 06:33N 46°49' W 071°12'0 0.0
2014-Sep-02 05:33N 46°49' W 071°12'0 0.0
2014-Sep-02 04:33N 46°49' W 071°12'0 0.0
2014-Sep-02 03:33N 46°49' W 071°12'0 0.0
2014-Sep-02 02:33N 46°49' W 071°12'0 0.0
2014-Sep-02 01:33N 46°49' W 071°12'0 0.0
2014-Sep-02 00:33N 46°49' W 071°12'0 0.0
2014-Sep-01 23:32N 46°49' W 071°12'0 0.0
2014-Sep-01 22:33N 46°49' W 071°12'0 0.0
2014-Sep-01 21:32N 46°49' W 071°12'0 0.0
2014-Sep-01 20:32N 46°49' W 071°12'3 3.5
2014-Sep-01 19:33N 46°46' W 071°15'6 5.7
2014-Sep-01 18:33N 46°44' W 071°22'6 6.2
2014-Sep-01 17:33N 46°46' W 071°14'7 7.2
2014-Sep-01 16:33N 46°52' W 071°08'5 5.0
2014-Sep-01 15:32N 46°51' W 071°01'6 6.4
2014-Sep-01 14:33N 46°50' W 071°10'2 1.9
2014-Sep-01 13:33N 46°49' W 071°12'0 0.0
2014-Sep-01 12:33N 46°49' W 071°12'0 0.0
2014-Sep-01 11:33N 46°49' W 071°12'0 0.0
2014-Sep-01 10:33N 46°49' W 071°12'0 0.0
2014-Sep-01 09:33N 46°49' W 071°12'0 0.0
2014-Sep-01 08:33N 46°49' W 071°12'0 0.0
2014-Sep-01 07:33N 46°49' W 071°12'0 0.0
2014-Sep-01 06:33N 46°49' W 071°12'0 0.0
2014-Sep-01 05:33N 46°49' W 071°12'0 0.0
2014-Sep-01 04:33N 46°49' W 071°12'0 0.0
2014-Sep-01 03:33N 46°49' W 071°12'1 1.3
2014-Sep-01 02:33N 46°48' W 071°13'4 3.8
2014-Sep-01 01:33N 46°45' W 071°17'1 1.3
2014-Sep-01 00:33N 46°46' W 071°15'8 8.1
2014-Aug-31 23:33N 46°52' W 071°08'4 4.3
2014-Aug-31 22:34N 46°49' W 071°12'0 0.0
2014-Aug-31 21:33N 46°49' W 071°12'4 3.8
2014-Aug-31 20:33N 46°52' W 071°09'4 3.8
2014-Aug-31 19:33N 46°49' W 071°12'4 3.6
2014-Aug-31 18:33N 46°52' W 071°09'4 3.6
2014-Aug-31 17:33N 46°49' W 071°12'2 2.4
2014-Aug-31 16:33N 46°51' W 071°10'2 2.4
2014-Aug-31 15:33N 46°49' W 071°12'0 0.0
2014-Aug-31 14:34N 46°49' W 071°12'0 0.0
2014-Aug-31 13:33N 46°49' W 071°12'0 0.0
2014-Aug-31 12:33N 46°49' W 071°12'0 0.0
2014-Aug-31 11:33N 46°49' W 071°12'0 0.0
2014-Aug-31 10:33N 46°49' W 071°12'0 0.0
2014-Aug-31 09:33N 46°49' W 071°12'0 0.0
2014-Aug-31 08:33N 46°49' W 071°12'0 0.0
2014-Aug-31 07:33N 46°49' W 071°12'0 0.0
2014-Aug-31 06:33N 46°49' W 071°12'0 0.0
2014-Aug-31 05:33N 46°49' W 071°12'0 0.0
2014-Aug-31 04:33N 46°49' W 071°12'0 0.0
2014-Aug-31 03:33N 46°49' W 071°12'1 1.0
2014-Aug-31 02:33N 46°48' W 071°12'5 4.7
2014-Aug-31 01:33N 46°45' W 071°17'3 3.2
2014-Aug-31 00:33N 46°47' W 071°14'5 5.3
2014-Aug-30 23:33N 46°51' W 071°09'3 2.8
2014-Aug-30 22:30N 46°49' W 071°12'0 0.0
2014-Aug-30 21:32N 46°49' W 071°12'4 3.8
2014-Aug-30 20:33N 46°52' W 071°09'4 3.7
2014-Aug-30 19:33N 46°49' W 071°12'3 3.2
2014-Aug-30 18:33N 46°51' W 071°09'3 3.2
2014-Aug-30 17:32N 46°49' W 071°12'2 2.2
2014-Aug-30 16:33N 46°51' W 071°10'2 2.2
2014-Aug-30 15:33N 46°49' W 071°12'0 0.1
2014-Aug-30 14:33N 46°49' W 071°12'0 0.0
2014-Aug-30 13:33N 46°49' W 071°12'0 0.0
2014-Aug-30 12:33N 46°49' W 071°12'0 0.0
2014-Aug-30 11:33N 46°49' W 071°12'0 0.0
2014-Aug-30 10:33N 46°49' W 071°12'0 0.0
2014-Aug-30 09:33N 46°49' W 071°12'0 0.0
2014-Aug-30 08:33N 46°49' W 071°12'0 0.0
2014-Aug-30 07:33N 46°49' W 071°12'0 0.0
2014-Aug-30 06:33N 46°49' W 071°12'2 1.5
2014-Aug-30 05:33N 46°50' W 071°11'1 0.5
2014-Aug-30 04:33N 46°50' W 071°10'2 1.9
2014-Aug-30 03:32N 46°49' W 071°12'1 1.1
2014-Aug-30 02:33N 46°50' W 071°12'5 5.0
2014-Aug-30 01:33N 46°46' W 071°15'1 0.8
2014-Aug-30 00:33N 46°45' W 071°16'9 8.9
2014-Aug-29 23:33N 46°52' W 071°08'4 4.2
2014-Aug-29 22:33N 46°49' W 071°12'0 0.0
2014-Aug-29 21:32N 46°49' W 071°12'3 3.4
2014-Aug-29 20:33N 46°51' W 071°09'3 3.3
2014-Aug-29 19:33N 46°49' W 071°12'3 3.3
2014-Aug-29 18:33N 46°51' W 071°09'3 3.2
2014-Aug-29 17:31N 46°49' W 071°12'2 2.1
2014-Aug-29 16:33N 46°50' W 071°10'2 2.1
2014-Aug-29 15:33N 46°49' W 071°12'0 0.1
2014-Aug-29 14:33N 46°49' W 071°12'0 0.0
2014-Aug-29 13:33N 46°49' W 071°12'0 0.0
2014-Aug-29 12:33N 46°49' W 071°12'0 0.0
2014-Aug-29 11:33N 46°49' W 071°12'0 0.0
2014-Aug-29 10:33N 46°49' W 071°12'0 0.0
2014-Aug-29 09:33N 46°49' W 071°12'0 0.0
2014-Aug-29 08:33N 46°49' W 071°12'0 0.0
2014-Aug-29 07:33N 46°49' W 071°12'0 0.0
2014-Aug-29 06:33N 46°49' W 071°12'0 0.0
2014-Aug-29 05:33N 46°49' W 071°12'0 0.0
2014-Aug-29 04:33N 46°49' W 071°12'0 0.0
2014-Aug-29 03:33N 46°49' W 071°12'1 1.1
2014-Aug-29 02:33N 46°50' W 071°11'6 6.4
2014-Aug-29 01:33N 46°45' W 071°17'2 1.8
2014-Aug-29 00:33N 46°46' W 071°15'7 6.4
2014-Aug-28 23:32N 46°51' W 071°09'3 3.0
2014-Aug-28 22:33N 46°49' W 071°12'0 0.0
2014-Aug-28 21:33N 46°49' W 071°12'4 4.1
2014-Aug-28 20:33N 46°52' W 071°08'4 4.1
2014-Aug-28 19:32N 46°49' W 071°12'3 2.4
2014-Aug-28 18:27N 46°51' W 071°09'3 2.9
2014-Aug-28 17:32N 46°49' W 071°12'2 1.7
2014-Aug-28 16:33N 46°50' W 071°11'2 1.7
2014-Aug-28 15:33N 46°49' W 071°12'0 0.0
2014-Aug-28 14:33N 46°49' W 071°12'0 0.0
2014-Aug-28 13:33N 46°49' W 071°12'0 0.0
2014-Aug-28 12:33N 46°49' W 071°12'0 0.0
2014-Aug-28 11:32N 46°49' W 071°12'0 0.0
2014-Aug-28 10:33N 46°49' W 071°12'0 0.0
2014-Aug-28 09:33N 46°49' W 071°12'0 0.0
2014-Aug-28 08:33N 46°49' W 071°12'0 0.0
2014-Aug-28 07:33N 46°49' W 071°12'0 0.0
2014-Aug-28 06:33N 46°49' W 071°12'0 0.0
2014-Aug-28 05:33N 46°49' W 071°12'0 0.0
2014-Aug-28 04:33N 46°49' W 071°12'0 0.0
2014-Aug-28 03:32N 46°49' W 071°12'1 1.1
2014-Aug-28 02:33N 46°50' W 071°12'6 6.2
2014-Aug-28 01:33N 46°45' W 071°17'2 1.8
2014-Aug-28 00:33N 46°46' W 071°15'7 7.1
2014-Aug-27 23:33N 46°52' W 071°09'4 3.6
2014-Aug-27 22:33N 46°49' W 071°12'0 0.0
2014-Aug-27 21:33N 46°49' W 071°12'5 4.7
2014-Aug-27 20:33N 46°53' W 071°08'5 4.8
2014-Aug-27 19:33N 46°49' W 071°12'3 3.2
2014-Aug-27 18:33N 46°51' W 071°09'3 3.2
2014-Aug-27 17:32N 46°49' W 071°12'1 1.4
2014-Aug-27 16:33N 46°50' W 071°11'2 1.5
2014-Aug-27 15:33N 46°49' W 071°12'0 0.2
2014-Aug-27 14:33N 46°49' W 071°12'0 0.0
2014-Aug-27 13:33N 46°49' W 071°12'0 0.0
2014-Aug-27 12:33N 46°49' W 071°12'0 0.0
2014-Aug-27 11:33N 46°49' W 071°12'0 0.0
2014-Aug-27 10:33N 46°49' W 071°12'0 0.0
2014-Aug-27 09:33N 46°49' W 071°12'0 0.0
2014-Aug-27 08:33N 46°49' W 071°12'0 0.0
2014-Aug-27 07:33N 46°49' W 071°12'0 0.0
2014-Aug-27 06:33N 46°49' W 071°12'0 0.0
2014-Aug-27 05:33N 46°49' W 071°12'0 0.0
2014-Aug-27 04:33N 46°49' W 071°12'0 0.0
2014-Aug-27 03:33N 46°49' W 071°12'1 1.3
2014-Aug-27 02:33N 46°50' W 071°11'6 6.4
2014-Aug-27 01:33N 46°45' W 071°17'3 2.9
2014-Aug-27 00:33N 46°47' W 071°14'5 5.2
2014-Aug-26 23:33N 46°51' W 071°09'3 3.0
2014-Aug-26 22:33N 46°49' W 071°12'0 0.0
2014-Aug-26 21:33N 46°49' W 071°12'5 4.7
2014-Aug-26 20:33N 46°53' W 071°08'5 4.7
2014-Aug-26 19:33N 46°49' W 071°12'3 3.4
2014-Aug-26 18:33N 46°51' W 071°09'3 3.4
2014-Aug-26 17:32N 46°49' W 071°12'2 2.1
2014-Aug-26 16:33N 46°50' W 071°10'2 2.1
2014-Aug-26 15:32N 46°49' W 071°12'0 0.0
2014-Aug-26 14:32N 46°49' W 071°12'0 0.0
2014-Aug-26 13:33N 46°49' W 071°12'0 0.0
2014-Aug-26 12:33N 46°49' W 071°12'0 0.0
2014-Aug-26 11:33N 46°49' W 071°12'0 0.0
2014-Aug-26 10:33N 46°49' W 071°12'0 0.0
2014-Aug-26 09:33N 46°49' W 071°12'0 0.0
2014-Aug-26 08:34N 46°49' W 071°12'0 0.0
2014-Aug-26 07:33N 46°49' W 071°12'0 0.0
2014-Aug-26 06:33N 46°49' W 071°12'0 0.0
2014-Aug-26 05:32N 46°49' W 071°12'0 0.0
2014-Aug-26 04:33N 46°49' W 071°12'0 0.0
2014-Aug-26 03:33N 46°49' W 071°12'1 0.7
2014-Aug-26 02:33N 46°49' W 071°12'7 6.5
2014-Aug-26 01:33N 46°45' W 071°18'4 4.0
2014-Aug-26 00:33N 46°47' W 071°13'5 5.2
2014-Aug-25 23:33N 46°51' W 071°09'3 3.2
2014-Aug-25 22:33N 46°49' W 071°12'0 0.0
2014-Aug-25 21:33N 46°49' W 071°12'5 4.6
2014-Aug-25 20:33N 46°53' W 071°08'5 4.6
2014-Aug-25 19:33N 46°49' W 071°12'4 3.6
2014-Aug-25 18:33N 46°52' W 071°09'4 3.6
2014-Aug-25 17:33N 46°49' W 071°12'2 1.5
2014-Aug-25 16:33N 46°50' W 071°11'2 1.6
2014-Aug-25 15:33N 46°49' W 071°12'0 0.1
2014-Aug-25 14:32N 46°49' W 071°12'0 0.0
2014-Aug-25 13:33N 46°49' W 071°12'0 0.0
2014-Aug-25 12:33N 46°49' W 071°12'0 0.0
2014-Aug-25 11:33N 46°49' W 071°12'0 0.0
2014-Aug-25 10:33N 46°49' W 071°12'0 0.0
2014-Aug-25 09:33N 46°49' W 071°12'0 0.0
2014-Aug-25 08:34N 46°49' W 071°12'0 0.0
2014-Aug-25 07:34N 46°49' W 071°12'0 0.0
2014-Aug-25 06:34N 46°49' W 071°12'0 0.0
2014-Aug-25 05:33N 46°49' W 071°12'0 0.0
2014-Aug-25 04:33N 46°49' W 071°12'0 0.0
2014-Aug-25 03:34N 46°49' W 071°12'1 0.6
2014-Aug-25 02:33N 46°48' W 071°12'7 6.9
2014-Aug-25 01:33N 46°44' W 071°20'6 5.8
2014-Aug-25 00:33N 46°48' W 071°13'4 4.5
2014-Aug-24 23:34N 46°51' W 071°09'3 3.3
2014-Aug-24 22:33N 46°49' W 071°12'0 0.0
2014-Aug-24 21:33N 46°49' W 071°12'3 3.5
2014-Aug-24 20:33N 46°51' W 071°09'3 3.5
2014-Aug-24 19:33N 46°49' W 071°12'5 4.7
2014-Aug-24 18:33N 46°53' W 071°08'5 4.7
2014-Aug-24 17:32N 46°49' W 071°12'2 1.8
2014-Aug-24 16:33N 46°50' W 071°11'2 1.8
2014-Aug-24 15:33N 46°49' W 071°12'0 0.0
2014-Aug-24 14:33N 46°49' W 071°12'0 0.0
2014-Aug-24 13:33N 46°49' W 071°12'0 0.0
2014-Aug-24 12:33N 46°49' W 071°12'0 0.0
2014-Aug-24 11:33N 46°49' W 071°12'0 0.0
2014-Aug-24 10:32N 46°49' W 071°12'0 0.0
2014-Aug-24 09:33N 46°49' W 071°12'0 0.0
2014-Aug-24 08:32N 46°49' W 071°12'0 0.0
2014-Aug-24 07:33N 46°49' W 071°12'0 0.0
2014-Aug-24 06:33N 46°49' W 071°12'0 0.0
2014-Aug-24 05:33N 46°49' W 071°12'0 0.0
2014-Aug-24 04:32N 46°49' W 071°12'0 0.0
2014-Aug-24 03:33N 46°49' W 071°12'1 1.0
2014-Aug-24 02:33N 46°50' W 071°11'8 7.5
2014-Aug-24 01:33N 46°44' W 071°19'5 5.1
2014-Aug-24 00:33N 46°47' W 071°13'5 5.4
2014-Aug-23 23:33N 46°52' W 071°09'4 3.9
2014-Aug-23 22:33N 46°49' W 071°12'0 0.0
2014-Aug-23 21:33N 46°49' W 071°12'4 3.5
2014-Aug-23 20:33N 46°52' W 071°09'4 3.6
2014-Aug-23 19:33N 46°49' W 071°12'  

Dump ship's entire track history